createdAt,value
2019-05-17T00:01:07.425Z,72.80
2019-05-17T00:03:37.082Z,72.32
2019-05-17T00:06:06.938Z,73.56
2019-05-17T00:08:38.140Z,73.00
2019-05-17T00:11:07.546Z,74.02
2019-05-17T00:13:38.705Z,74.30
2019-05-17T00:16:09.786Z,74.63
2019-05-17T00:18:39.179Z,76.27
2019-05-17T00:21:09.729Z,76.98
2019-05-17T00:23:39.186Z,77.01
2019-05-17T00:26:08.706Z,75.99
2019-05-17T00:28:38.150Z,76.80
2019-05-17T00:31:07.613Z,75.67
2019-05-17T00:33:37.262Z,73.88
2019-05-17T00:36:07.161Z,74.83
2019-05-17T00:38:47.607Z,75.97
2019-05-17T00:41:08.944Z,74.73
2019-05-17T00:43:38.324Z,77.42
2019-05-17T00:46:08.839Z,77.42
2019-05-17T00:48:38.237Z,77.53
2019-05-17T00:51:10.167Z,74.78
2019-05-17T00:53:38.717Z,75.73
2019-05-17T00:56:08.161Z,76.96
2019-05-17T00:58:37.609Z,77.84
2019-05-17T01:01:08.197Z,77.86
2019-05-17T01:03:38.166Z,78.33
2019-05-17T01:06:07.546Z,77.32
2019-05-17T01:08:37.411Z,76.19
2019-05-17T01:11:07.371Z,76.88
2019-05-17T01:13:37.423Z,77.69
2019-05-17T01:16:07.508Z,76.39
2019-05-17T01:18:37.151Z,77.24
2019-05-17T01:21:07.684Z,77.13
2019-05-17T01:23:37.077Z,76.14
2019-05-17T01:26:07.515Z,78.21
2019-05-17T01:28:37.218Z,77.92
2019-05-17T01:31:07.246Z,77.26
2019-05-17T01:33:37.259Z,76.82
2019-05-17T01:36:07.472Z,76.49
2019-05-17T01:38:37.948Z,76.05
2019-05-17T01:41:08.277Z,75.65
2019-05-17T01:43:37.986Z,74.25
2019-05-17T01:46:08.228Z,74.81
2019-05-17T01:48:38.428Z,75.25
2019-05-17T01:51:08.737Z,75.54
2019-05-17T01:53:38.783Z,74.43
2019-05-17T01:56:09.048Z,75.48
2019-05-17T01:58:39.146Z,76.62
2019-05-17T02:01:09.509Z,76.91
2019-05-17T02:03:39.565Z,76.40
2019-05-17T02:06:09.904Z,75.71
2019-05-17T02:08:40.074Z,76.15
2019-05-17T02:11:10.228Z,75.74
2019-05-17T02:13:40.361Z,77.44
2019-05-17T02:16:10.672Z,78.12
2019-05-17T02:18:40.792Z,76.66
2019-05-17T02:21:11.098Z,77.30
2019-05-17T02:23:41.160Z,77.10
2019-05-17T02:26:11.736Z,76.91
2019-05-17T02:28:41.591Z,76.45
2019-05-17T02:31:13.253Z,77.04
2019-05-17T02:33:43.236Z,78.79
2019-05-17T02:36:14.131Z,79.91
2019-05-17T02:38:43.835Z,80.52
2019-05-17T02:41:14.099Z,79.94
2019-05-17T02:43:43.819Z,79.53
2019-05-17T02:46:13.834Z,78.92
2019-05-17T02:48:43.396Z,79.57
2019-05-17T02:51:13.429Z,80.17
2019-05-17T02:53:44.434Z,81.10
2019-05-17T02:56:13.867Z,81.04
2019-05-17T02:58:44.103Z,80.11
2019-05-17T03:01:14.063Z,79.39
2019-05-17T03:03:44.300Z,78.43
2019-05-17T03:06:14.505Z,78.75
2019-05-17T03:08:44.631Z,79.86
2019-05-17T03:11:14.749Z,80.54
2019-05-17T03:13:45.047Z,80.04
2019-05-17T03:16:15.190Z,79.10
2019-05-17T03:18:45.414Z,79.08
2019-05-17T03:21:15.600Z,78.93
2019-05-17T03:23:45.715Z,78.25
2019-05-17T03:26:15.948Z,78.85
2019-05-17T03:28:46.203Z,79.63
2019-05-17T03:31:17.757Z,79.79
2019-05-17T03:33:47.425Z,79.36
2019-05-17T03:36:17.926Z,79.33
2019-05-17T03:38:47.548Z,80.79
2019-05-17T03:41:23.814Z,81.98
2019-05-17T03:43:48.346Z,81.50
2019-05-17T03:46:17.958Z,81.72
2019-05-17T03:48:47.713Z,80.58
2019-05-17T03:51:18.052Z,80.58
2019-05-17T03:53:48.152Z,80.10
2019-05-17T03:56:18.261Z,80.80
2019-05-17T03:58:48.439Z,81.73
2019-05-17T04:01:18.646Z,82.37
2019-05-17T04:03:48.833Z,82.12
2019-05-17T04:06:19.206Z,81.66
2019-05-17T04:08:49.246Z,81.54
2019-05-17T04:11:30.245Z,80.27
2019-05-17T04:13:53.553Z,80.61
2019-05-17T04:16:23.884Z,80.79
2019-05-17T04:18:53.480Z,79.44
2019-05-17T04:21:23.717Z,78.60
2019-05-17T04:23:53.843Z,78.38
2019-05-17T04:26:23.281Z,76.91
2019-05-17T04:28:53.465Z,77.02
2019-05-17T04:31:23.054Z,77.72
2019-05-17T04:33:53.655Z,78.14
2019-05-17T04:36:23.311Z,73.75
2019-05-17T04:38:52.810Z,75.11
2019-05-17T04:41:39.558Z,76.14
2019-05-17T04:43:53.422Z,73.22
2019-05-17T04:46:23.547Z,75.24
2019-05-17T04:48:54.157Z,75.31
2019-05-17T04:51:23.586Z,74.05
2019-05-17T04:53:53.221Z,72.54
2019-05-17T04:56:23.620Z,73.41
2019-05-17T04:58:54.309Z,73.60
2019-05-17T05:01:23.916Z,71.26
2019-05-17T05:03:53.678Z,69.89
2019-05-17T05:06:23.777Z,70.66
2019-05-17T05:08:53.983Z,72.20
2019-05-17T05:11:24.130Z,71.26
2019-05-17T05:13:54.333Z,73.24
2019-05-17T05:16:24.426Z,71.71
2019-05-17T05:18:54.690Z,72.86
2019-05-17T05:21:24.890Z,72.26
2019-05-17T05:23:55.020Z,71.64
2019-05-17T05:26:25.255Z,69.84
2019-05-17T05:28:55.310Z,67.80
2019-05-17T05:31:25.610Z,71.21
2019-05-17T05:33:55.794Z,69.78
2019-05-17T05:36:25.922Z,67.48
2019-05-17T05:38:56.005Z,67.58
2019-05-17T05:41:26.224Z,63.17
2019-05-17T05:43:56.368Z,64.30
2019-05-17T05:46:26.515Z,65.55
2019-05-17T05:48:56.633Z,68.37
2019-05-17T05:51:26.705Z,64.56
2019-05-17T05:53:56.833Z,63.87
2019-05-17T05:56:27.094Z,66.87
2019-05-17T05:58:57.183Z,62.86
2019-05-17T06:01:27.481Z,61.93
2019-05-17T06:03:57.617Z,59.28
2019-05-17T06:06:27.765Z,64.10
2019-05-17T06:08:57.994Z,63.53
2019-05-17T06:11:28.154Z,62.96
2019-05-17T06:13:58.405Z,58.93
2019-05-17T06:16:28.555Z,59.91
2019-05-17T06:18:58.685Z,57.12
2019-05-17T06:21:29.001Z,60.20
2019-05-17T06:23:59.021Z,58.79
2019-05-17T06:26:31.427Z,58.87
2019-05-17T06:29:02.801Z,61.23
2019-05-17T06:31:33.313Z,59.52
2019-05-17T06:34:02.854Z,60.29
2019-05-17T06:36:32.898Z,61.24
2019-05-17T06:39:02.491Z,60.73
2019-05-17T06:41:32.434Z,57.28
2019-05-17T06:44:02.917Z,56.52
2019-05-17T06:46:32.658Z,58.96
2019-05-17T06:49:03.011Z,59.91
2019-05-17T06:51:32.563Z,59.51
2019-05-17T06:54:01.956Z,60.02
2019-05-17T06:56:32.402Z,61.72
2019-05-17T06:59:01.906Z,61.20
2019-05-17T07:01:32.233Z,61.60
2019-05-17T07:04:02.508Z,61.27
2019-05-17T07:06:33.910Z,60.73
2019-05-17T07:09:04.859Z,62.05
2019-05-17T07:11:34.340Z,62.17
2019-05-17T07:14:03.865Z,60.58
2019-05-17T07:16:33.245Z,57.77
2019-05-17T07:19:03.038Z,58.06
2019-05-17T07:21:33.266Z,57.95
2019-05-17T07:24:03.450Z,58.04
2019-05-17T07:26:33.663Z,53.35
2019-05-17T07:29:03.678Z,52.47
2019-05-17T07:31:33.911Z,56.16
2019-05-17T07:34:04.094Z,55.22
2019-05-17T07:36:34.138Z,57.34
2019-05-17T07:39:05.109Z,56.82
2019-05-17T07:41:34.561Z,56.48
2019-05-17T07:44:04.842Z,54.31
2019-05-17T07:46:34.875Z,53.12
2019-05-17T07:49:04.974Z,56.07
2019-05-17T07:51:35.064Z,55.21
2019-05-17T07:54:05.353Z,53.67
2019-05-17T07:56:35.424Z,45.23
2019-05-17T07:59:05.443Z,44.64
2019-05-17T08:01:35.572Z,46.06
2019-05-17T08:04:05.733Z,44.98
2019-05-17T08:06:35.900Z,47.40
2019-05-17T08:09:13.285Z,51.44
2019-05-17T08:11:39.630Z,50.63
2019-05-17T08:14:10.567Z,48.73
2019-05-17T08:16:40.035Z,50.10
2019-05-17T08:19:09.890Z,49.01
2019-05-17T08:21:39.767Z,48.86
2019-05-17T08:24:10.408Z,50.20
2019-05-17T08:26:40.486Z,49.08
2019-05-17T08:29:10.982Z,49.80
2019-05-17T08:31:40.633Z,48.91
2019-05-17T08:34:10.437Z,45.17
2019-05-17T08:36:40.857Z,45.34
2019-05-17T08:39:10.462Z,40.57
2019-05-17T08:41:40.494Z,38.61
2019-05-17T08:44:10.977Z,40.45
2019-05-17T08:46:40.441Z,41.02
2019-05-17T08:49:09.932Z,42.97
2019-05-17T08:51:39.825Z,44.93
2019-05-17T08:54:10.515Z,47.80
2019-05-17T08:56:40.343Z,45.42
2019-05-17T08:59:09.856Z,44.37
2019-05-17T09:01:41.766Z,47.00
2019-05-17T09:04:11.041Z,43.13
2019-05-17T09:06:40.455Z,42.73
2019-05-17T09:09:10.928Z,42.04
2019-05-17T09:11:40.676Z,42.06
2019-05-17T09:14:10.772Z,41.17
2019-05-17T09:16:41.117Z,39.39
2019-05-17T09:19:11.268Z,38.63
2019-05-17T09:21:41.610Z,38.62
2019-05-17T09:24:11.546Z,40.71
2019-05-17T09:26:41.923Z,41.02
2019-05-17T09:29:11.931Z,44.05
2019-05-17T09:31:42.122Z,42.81
2019-05-17T09:34:12.456Z,45.72
2019-05-17T09:36:42.574Z,45.75
2019-05-17T09:39:12.744Z,41.17
2019-05-17T09:41:42.951Z,39.11
2019-05-17T09:44:16.318Z,41.64
2019-05-17T09:46:44.239Z,38.95
2019-05-17T09:49:13.645Z,37.12
2019-05-17T09:51:44.000Z,40.83
2019-05-17T09:54:13.822Z,39.18
2019-05-17T09:56:43.961Z,40.54
2019-05-17T09:59:14.162Z,37.27
2019-05-17T10:01:44.374Z,40.06
2019-05-17T10:04:14.404Z,41.94
2019-05-17T10:06:44.533Z,38.80
2019-05-17T10:09:14.992Z,40.83
2019-05-17T10:11:45.240Z,39.47
2019-05-17T10:14:25.752Z,35.18
2019-05-17T10:16:46.099Z,36.49
2019-05-17T10:19:15.495Z,38.10
2019-05-17T10:21:45.558Z,42.45
2019-05-17T10:24:15.653Z,39.41
2019-05-17T10:26:46.048Z,42.37
2019-05-17T10:29:16.060Z,41.82
2019-05-17T10:31:46.310Z,42.17
2019-05-17T10:34:16.464Z,39.64
2019-05-17T10:36:46.591Z,40.14
2019-05-17T10:39:19.268Z,37.93
2019-05-17T10:41:50.091Z,39.88
2019-05-17T10:44:19.886Z,41.78
2019-05-17T10:46:49.249Z,40.89
2019-05-17T10:49:20.186Z,41.74
2019-05-17T10:51:49.677Z,39.70
2019-05-17T10:54:20.698Z,41.08
2019-05-17T10:56:50.367Z,39.32
2019-05-17T10:59:20.319Z,39.22
2019-05-17T11:01:50.295Z,40.44
2019-05-17T11:04:19.845Z,38.57
2019-05-17T11:06:50.092Z,39.37
2019-05-17T11:09:20.505Z,38.13
2019-05-17T11:11:50.082Z,39.89
2019-05-17T11:14:19.591Z,41.64
2019-05-17T11:16:49.729Z,42.05
2019-05-17T11:19:19.847Z,41.77
2019-05-17T11:21:49.985Z,40.05
2019-05-17T11:24:19.984Z,38.83
2019-05-17T11:26:50.192Z,37.16
2019-05-17T11:29:20.337Z,34.99
2019-05-17T11:31:50.472Z,36.47
2019-05-17T11:34:20.577Z,37.79
2019-05-17T11:36:50.795Z,40.11
2019-05-17T11:39:20.955Z,41.28
2019-05-17T11:41:51.231Z,41.86
2019-05-17T11:44:21.370Z,40.36
2019-05-17T11:46:51.550Z,39.89
2019-05-17T11:49:21.741Z,42.39
2019-05-17T11:51:52.026Z,42.89
2019-05-17T11:54:22.510Z,40.72
2019-05-17T11:56:52.477Z,41.01
2019-05-17T11:59:22.673Z,40.66
2019-05-17T12:01:52.785Z,41.90
2019-05-17T12:04:22.929Z,40.23
2019-05-17T12:06:53.137Z,40.56
2019-05-17T12:09:36.510Z,40.50
2019-05-17T12:11:54.817Z,40.48
2019-05-17T12:14:24.205Z,40.18
2019-05-17T12:16:53.909Z,42.19
2019-05-17T12:19:24.076Z,38.52
2019-05-17T12:21:54.333Z,38.82
2019-05-17T12:24:24.373Z,40.24
2019-05-17T12:26:54.622Z,38.85
2019-05-17T12:29:24.852Z,40.51
2019-05-17T12:31:55.092Z,37.91
2019-05-17T12:34:25.428Z,38.02
2019-05-17T12:36:55.333Z,39.50
2019-05-17T12:39:25.424Z,38.02
2019-05-17T12:41:55.683Z,41.04
2019-05-17T12:44:25.752Z,38.89
2019-05-17T12:46:55.996Z,39.85
2019-05-17T12:49:26.060Z,38.70
2019-05-17T12:51:56.325Z,38.54
2019-05-17T12:54:26.680Z,38.54
2019-05-17T12:56:56.669Z,39.78
2019-05-17T12:59:26.911Z,37.36
2019-05-17T13:01:57.104Z,39.89
2019-05-17T13:04:27.347Z,39.67
2019-05-17T13:06:57.796Z,38.62
2019-05-17T13:09:27.634Z,37.02
2019-05-17T13:11:57.925Z,36.32
2019-05-17T13:14:28.129Z,36.01
2019-05-17T13:16:58.368Z,39.55
2019-05-17T13:19:28.754Z,37.67
2019-05-17T13:21:58.673Z,38.61
2019-05-17T13:24:28.831Z,39.03
2019-05-17T13:26:59.057Z,39.64
2019-05-17T13:29:29.245Z,40.46
2019-05-17T13:31:59.501Z,40.17
2019-05-17T13:34:29.630Z,40.38
2019-05-17T13:36:59.983Z,42.49
2019-05-17T13:39:29.947Z,42.88
2019-05-17T13:42:00.146Z,43.01
2019-05-17T13:44:30.598Z,43.27
2019-05-17T13:47:00.631Z,42.05
2019-05-17T13:49:30.706Z,42.32
2019-05-17T13:52:00.913Z,39.24
2019-05-17T13:54:31.159Z,39.32
2019-05-17T13:57:01.432Z,41.83
2019-05-17T13:59:31.671Z,42.37
2019-05-17T14:02:01.778Z,42.84
2019-05-17T14:04:31.865Z,42.21
2019-05-17T14:07:02.112Z,43.81
2019-05-17T14:09:32.231Z,41.22
2019-05-17T14:12:02.532Z,42.49
2019-05-17T14:14:32.673Z,42.52
2019-05-17T14:17:02.884Z,43.06
2019-05-17T14:19:33.102Z,43.81
2019-05-17T14:22:03.262Z,43.67
2019-05-17T14:24:33.446Z,43.09
2019-05-17T14:27:03.616Z,43.30
2019-05-17T14:29:33.715Z,44.00
2019-05-17T14:32:04.187Z,43.67
2019-05-17T14:34:34.092Z,42.86
2019-05-17T14:37:07.533Z,43.40
2019-05-17T14:39:35.422Z,42.32
2019-05-17T14:42:04.905Z,45.52
2019-05-17T14:44:34.971Z,44.81
2019-05-17T14:47:05.164Z,46.26
2019-05-17T14:49:35.167Z,46.80
2019-05-17T14:52:05.453Z,47.56
2019-05-17T14:54:35.434Z,47.59
2019-05-17T14:57:05.789Z,45.75
2019-05-17T14:59:35.861Z,45.28
2019-05-17T15:02:06.051Z,46.23
2019-05-17T15:04:37.049Z,45.06
2019-05-17T15:07:06.425Z,44.83
2019-05-17T15:09:36.637Z,45.81
2019-05-17T15:12:06.744Z,47.40
2019-05-17T15:14:37.090Z,45.62
2019-05-17T15:17:07.257Z,45.04
2019-05-17T15:19:37.625Z,46.93
2019-05-17T15:22:07.732Z,43.75
2019-05-17T15:24:38.047Z,46.34
2019-05-17T15:27:07.439Z,45.81
2019-05-17T15:29:36.949Z,45.76
2019-05-17T15:32:06.388Z,47.12
2019-05-17T15:34:36.137Z,47.75
2019-05-17T15:37:05.702Z,48.73
2019-05-17T15:39:35.152Z,47.63
2019-05-17T15:42:04.605Z,47.11
2019-05-17T15:44:34.064Z,48.73
2019-05-17T15:47:03.547Z,48.06
2019-05-17T15:49:32.925Z,49.10
2019-05-17T15:52:02.401Z,48.64
2019-05-17T15:54:32.191Z,47.76
2019-05-17T15:57:01.806Z,48.77
2019-05-17T15:59:31.219Z,48.79
2019-05-17T16:02:01.806Z,49.80
2019-05-17T16:04:31.187Z,48.60
2019-05-17T16:07:00.800Z,48.17
2019-05-17T16:09:30.189Z,48.59
2019-05-17T16:11:59.565Z,48.84
2019-05-17T16:14:28.961Z,49.49
2019-05-17T16:16:58.345Z,48.16
2019-05-17T16:19:27.727Z,49.74
2019-05-17T16:21:57.109Z,49.81
2019-05-17T16:24:26.736Z,47.97
2019-05-17T16:26:56.190Z,48.67
2019-05-17T16:29:25.587Z,49.09
2019-05-17T16:31:54.958Z,51.10
2019-05-17T16:34:24.421Z,51.19
2019-05-17T16:36:53.796Z,51.40
2019-05-17T16:39:23.182Z,51.62
2019-05-17T16:41:52.573Z,51.17
2019-05-17T16:44:21.963Z,49.64
2019-05-17T16:46:51.400Z,50.16
2019-05-17T16:49:20.798Z,51.37
2019-05-17T16:51:50.250Z,52.06
2019-05-17T16:54:20.171Z,51.25
2019-05-17T16:56:50.197Z,53.27
2019-05-17T16:59:20.266Z,52.71
2019-05-17T17:01:50.191Z,52.59
2019-05-17T17:04:20.245Z,52.24
2019-05-17T17:06:50.335Z,53.14
2019-05-17T17:09:20.740Z,53.79
2019-05-17T17:11:50.623Z,53.07
2019-05-17T17:14:20.721Z,52.01
2019-05-17T17:16:50.525Z,54.39
2019-05-17T17:19:20.376Z,53.64
2019-05-17T17:21:50.436Z,51.87
2019-05-17T17:24:20.362Z,53.45
2019-05-17T17:26:50.409Z,52.95
2019-05-17T17:29:20.412Z,54.62
2019-05-17T17:31:50.406Z,54.55
2019-05-17T17:34:20.561Z,54.55
2019-05-17T17:36:50.645Z,53.78
2019-05-17T17:39:20.791Z,55.66
2019-05-17T17:41:50.940Z,55.92
2019-05-17T17:44:21.247Z,54.07
2019-05-17T17:46:51.657Z,53.72
2019-05-17T17:49:21.532Z,56.46
2019-05-17T17:51:51.818Z,56.08
2019-05-17T17:54:21.953Z,55.97
2019-05-17T17:56:52.660Z,55.49
2019-05-17T17:59:22.473Z,55.58
2019-05-17T18:01:52.763Z,57.06
2019-05-17T18:04:22.931Z,57.76
2019-05-17T18:06:53.229Z,58.01
2019-05-17T18:09:23.450Z,58.64
2019-05-17T18:11:53.797Z,58.57
2019-05-17T18:14:23.885Z,59.70
2019-05-17T18:16:54.247Z,59.58
2019-05-17T18:19:24.452Z,60.00
2019-05-17T18:21:54.668Z,58.98
2019-05-17T18:24:24.832Z,59.17
2019-05-17T18:26:55.667Z,60.08
2019-05-17T18:29:25.359Z,58.93
2019-05-17T18:31:55.764Z,58.24
2019-05-17T18:34:25.971Z,58.51
2019-05-17T18:36:56.298Z,57.66
2019-05-17T18:39:26.290Z,59.42
2019-05-17T18:41:56.663Z,58.51
2019-05-17T18:44:28.074Z,60.52
2019-05-17T18:46:57.782Z,59.64
2019-05-17T18:49:27.232Z,59.97
2019-05-17T18:51:57.591Z,57.54
2019-05-17T18:54:27.646Z,59.48
2019-05-17T18:56:58.012Z,60.57
2019-05-17T18:59:28.213Z,60.36
2019-05-17T19:01:58.470Z,61.19
2019-05-17T19:04:28.549Z,61.00
2019-05-17T19:06:58.931Z,62.08
2019-05-17T19:09:29.037Z,62.25
2019-05-17T19:11:59.391Z,61.00
2019-05-17T19:14:42.095Z,62.02
2019-05-17T19:17:01.714Z,63.50
2019-05-17T19:19:31.168Z,63.77
2019-05-17T19:22:00.717Z,63.77
2019-05-17T19:24:31.259Z,63.26
2019-05-17T19:27:00.704Z,64.08
2019-05-17T19:29:30.955Z,64.29
2019-05-17T19:32:01.251Z,63.99
2019-05-17T19:34:31.357Z,63.75
2019-05-17T19:37:01.758Z,64.04
2019-05-17T19:39:31.890Z,63.43
2019-05-17T19:42:02.268Z,64.99
2019-05-17T19:44:32.767Z,64.82
2019-05-17T19:47:02.883Z,64.47
2019-05-17T19:49:32.734Z,64.84
2019-05-17T19:52:03.111Z,65.01
2019-05-17T19:54:33.235Z,64.33
2019-05-17T19:57:03.637Z,64.32
2019-05-17T19:59:33.698Z,65.27
2019-05-17T20:02:06.530Z,66.01
2019-05-17T20:04:35.014Z,63.66
2019-05-17T20:07:04.424Z,64.87
2019-05-17T20:09:34.545Z,65.32
2019-05-17T20:12:04.899Z,65.09
2019-05-17T20:14:34.994Z,65.25
2019-05-17T20:17:05.466Z,65.94
2019-05-17T20:19:35.540Z,66.50
2019-05-17T20:22:05.848Z,66.37
2019-05-17T20:24:35.987Z,64.21
2019-05-17T20:27:06.293Z,66.27
2019-05-17T20:29:36.450Z,66.89
2019-05-17T20:32:06.766Z,65.53
2019-05-17T20:34:36.881Z,66.35
2019-05-17T20:37:07.220Z,65.63
2019-05-17T20:39:37.390Z,64.43
2019-05-17T20:42:07.683Z,65.19
2019-05-17T20:44:37.728Z,66.27
2019-05-17T20:47:08.252Z,66.48
2019-05-17T20:49:38.324Z,67.54
2019-05-17T20:52:08.585Z,67.99
2019-05-17T20:54:38.767Z,67.02
2019-05-17T20:57:09.020Z,66.56
2019-05-17T20:59:39.008Z,65.22
2019-05-17T21:02:09.999Z,66.54
2019-05-17T21:04:39.462Z,70.11
2019-05-17T21:07:09.181Z,64.85
2019-05-17T21:09:39.258Z,65.58
2019-05-17T21:12:09.170Z,66.91
2019-05-17T21:14:39.226Z,66.81
2019-05-17T21:17:09.246Z,65.48
2019-05-17T21:19:39.273Z,64.63
2019-05-17T21:22:09.306Z,65.54
2019-05-17T21:24:39.345Z,66.37
2019-05-17T21:27:09.419Z,65.15
2019-05-17T21:29:39.422Z,64.93
2019-05-17T21:32:09.430Z,65.44
2019-05-17T21:34:39.587Z,65.62
2019-05-17T21:37:09.664Z,66.31
2019-05-17T21:39:42.102Z,65.59
2019-05-17T21:42:11.499Z,66.08
2019-05-17T21:44:40.899Z,66.15
2019-05-17T21:47:10.281Z,65.57
2019-05-17T21:49:39.744Z,65.57
2019-05-17T21:52:09.710Z,65.51
2019-05-17T21:54:39.677Z,66.51
2019-05-17T21:57:09.702Z,66.01
2019-05-17T21:59:39.845Z,66.98
2019-05-17T22:02:09.861Z,66.79
2019-05-17T22:04:39.871Z,66.72
2019-05-17T22:07:09.960Z,67.13
2019-05-17T22:09:39.925Z,66.45
2019-05-17T22:12:11.603Z,65.77
2019-05-17T22:14:41.078Z,64.85
2019-05-17T22:17:10.723Z,65.61
2019-05-17T22:19:40.124Z,66.88
2019-05-17T22:22:10.240Z,66.77
2019-05-17T22:24:40.234Z,66.41
2019-05-17T22:27:10.251Z,66.50
2019-05-17T22:29:40.770Z,65.31
2019-05-17T22:32:10.432Z,65.82
2019-05-17T22:34:40.411Z,66.36
2019-05-17T22:37:10.505Z,67.12
2019-05-17T22:39:40.632Z,66.52
2019-05-17T22:42:10.783Z,66.21
2019-05-17T22:44:41.033Z,61.33
2019-05-17T22:47:11.214Z,64.92
2019-05-17T22:49:41.447Z,65.57
2019-05-17T22:52:11.620Z,66.00
2019-05-17T22:54:41.880Z,65.47
2019-05-17T22:57:11.976Z,66.82
2019-05-17T22:59:42.261Z,65.70
2019-05-17T23:02:12.443Z,66.78
2019-05-17T23:04:42.671Z,67.71
2019-05-17T23:07:12.894Z,66.93
2019-05-17T23:09:43.042Z,67.07
2019-05-17T23:12:13.269Z,66.92
2019-05-17T23:14:43.660Z,67.43
2019-05-17T23:17:13.876Z,67.79
2019-05-17T23:19:43.985Z,66.40
2019-05-17T23:22:14.237Z,65.27
2019-05-17T23:24:44.325Z,65.60
2019-05-17T23:27:14.583Z,66.51
2019-05-17T23:29:44.669Z,66.83
2019-05-17T23:32:15.085Z,66.75
2019-05-17T23:34:45.019Z,66.82
2019-05-17T23:37:15.125Z,67.39
2019-05-17T23:39:45.374Z,67.29
2019-05-17T23:42:15.420Z,68.10
2019-05-17T23:44:45.622Z,68.10
2019-05-17T23:47:15.652Z,67.22
2019-05-17T23:49:45.858Z,67.42
2019-05-17T23:52:15.956Z,68.34
2019-05-17T23:54:46.223Z,67.83
2019-05-17T23:57:16.460Z,68.41
2019-05-17T23:59:46.599Z,69.25
